sensor_id;sensor_type;location;lat;lon;timestamp;P1;durP1;ratioP1;P2;durP2;ratioP2
48751;SDS011;34544;48.836;9.174;2023-05-07T00:01:35;7.63;;;5.03;;
48751;SDS011;34544;48.836;9.174;2023-05-07T00:04:01;5.35;;;4.53;;
48751;SDS011;34544;48.836;9.174;2023-05-07T00:06:27;11.02;;;5.85;;
48751;SDS011;34544;48.836;9.174;2023-05-07T00:08:54;7.78;;;4.30;;
48751;SDS011;34544;48.836;9.174;2023-05-07T00:11:19;6.43;;;5.40;;
48751;SDS011;34544;48.836;9.174;2023-05-07T00:13:46;6.55;;;4.78;;
48751;SDS011;34544;48.836;9.174;2023-05-07T00:16:12;8.80;;;5.13;;
48751;SDS011;34544;48.836;9.174;2023-05-07T00:18:38;5.85;;;4.97;;
48751;SDS011;34544;48.836;9.174;2023-05-07T00:21:03;12.35;;;5.43;;
48751;SDS011;34544;48.836;9.174;2023-05-07T00:23:29;7.05;;;4.72;;
48751;SDS011;34544;48.836;9.174;2023-05-07T00:25:55;6.88;;;5.30;;
48751;SDS011;34544;48.836;9.174;2023-05-07T00:28:21;8.52;;;4.93;;
48751;SDS011;34544;48.836;9.174;2023-05-07T00:30:47;7.63;;;4.75;;
48751;SDS011;34544;48.836;9.174;2023-05-07T00:33:12;7.32;;;5.30;;
48751;SDS011;34544;48.836;9.174;2023-05-07T00:35:38;6.53;;;5.15;;
48751;SDS011;34544;48.836;9.174;2023-05-07T00:38:04;7.05;;;5.25;;
48751;SDS011;34544;48.836;9.174;2023-05-07T00:40:29;8.13;;;5.07;;
48751;SDS011;34544;48.836;9.174;2023-05-07T00:42:55;7.63;;;5.13;;
48751;SDS011;34544;48.836;9.174;2023-05-07T00:45:24;10.52;;;6.03;;
48751;SDS011;34544;48.836;9.174;2023-05-07T00:47:55;8.40;;;5.03;;
48751;SDS011;34544;48.836;9.174;2023-05-07T00:50:23;7.33;;;5.33;;
48751;SDS011;34544;48.836;9.174;2023-05-07T00:52:50;6.82;;;4.45;;
48751;SDS011;34544;48.836;9.174;2023-05-07T00:55:16;7.88;;;5.15;;
48751;SDS011;34544;48.836;9.174;2023-05-07T00:57:42;8.15;;;5.00;;
48751;SDS011;34544;48.836;9.174;2023-05-07T01:00:09;5.90;;;5.30;;
48751;SDS011;34544;48.836;9.174;2023-05-07T01:02:35;7.70;;;5.45;;
48751;SDS011;34544;48.836;9.174;2023-05-07T01:05:01;7.90;;;5.10;;
48751;SDS011;34544;48.836;9.174;2023-05-07T01:07:29;6.80;;;5.10;;
48751;SDS011;34544;48.836;9.174;2023-05-07T01:09:56;10.98;;;6.50;;
48751;SDS011;34544;48.836;9.174;2023-05-07T01:12:23;6.65;;;4.82;;
48751;SDS011;34544;48.836;9.174;2023-05-07T01:14:50;8.25;;;6.07;;
48751;SDS011;34544;48.836;9.174;2023-05-07T01:17:17;9.02;;;6.15;;
48751;SDS011;34544;48.836;9.174;2023-05-07T01:19:44;9.63;;;5.30;;
48751;SDS011;34544;48.836;9.174;2023-05-07T01:22:10;8.02;;;5.25;;
48751;SDS011;34544;48.836;9.174;2023-05-07T01:24:46;8.68;;;5.20;;
48751;SDS011;34544;48.836;9.174;2023-05-07T01:27:13;9.02;;;5.03;;
48751;SDS011;34544;48.836;9.174;2023-05-07T01:29:39;8.05;;;5.05;;
48751;SDS011;34544;48.836;9.174;2023-05-07T01:32:05;7.70;;;4.80;;
48751;SDS011;34544;48.836;9.174;2023-05-07T01:34:32;9.45;;;4.88;;
48751;SDS011;34544;48.836;9.174;2023-05-07T01:36:59;7.72;;;5.75;;
48751;SDS011;34544;48.836;9.174;2023-05-07T01:39:26;9.98;;;5.30;;
48751;SDS011;34544;48.836;9.174;2023-05-07T01:41:54;6.97;;;5.80;;
48751;SDS011;34544;48.836;9.174;2023-05-07T01:44:22;8.40;;;5.78;;
48751;SDS011;34544;48.836;9.174;2023-05-07T01:46:49;8.75;;;6.15;;
48751;SDS011;34544;48.836;9.174;2023-05-07T01:49:15;7.15;;;4.97;;
48751;SDS011;34544;48.836;9.174;2023-05-07T01:51:42;10.18;;;5.72;;
48751;SDS011;34544;48.836;9.174;2023-05-07T01:54:10;8.20;;;5.25;;
48751;SDS011;34544;48.836;9.174;2023-05-07T01:56:36;7.00;;;5.65;;
48751;SDS011;34544;48.836;9.174;2023-05-07T01:59:02;7.35;;;4.82;;
48751;SDS011;34544;48.836;9.174;2023-05-07T02:01:28;8.20;;;4.90;;
48751;SDS011;34544;48.836;9.174;2023-05-07T02:03:54;6.95;;;5.32;;
48751;SDS011;34544;48.836;9.174;2023-05-07T02:06:23;17.38;;;5.88;;
48751;SDS011;34544;48.836;9.174;2023-05-07T02:08:53;11.57;;;5.70;;
48751;SDS011;34544;48.836;9.174;2023-05-07T02:11:19;10.10;;;5.28;;
48751;SDS011;34544;48.836;9.174;2023-05-07T02:13:45;9.35;;;5.38;;
48751;SDS011;34544;48.836;9.174;2023-05-07T02:16:11;9.70;;;4.90;;
48751;SDS011;34544;48.836;9.174;2023-05-07T02:18:38;6.35;;;4.65;;
48751;SDS011;34544;48.836;9.174;2023-05-07T02:21:04;7.38;;;5.68;;
48751;SDS011;34544;48.836;9.174;2023-05-07T02:23:30;9.32;;;5.22;;
48751;SDS011;34544;48.836;9.174;2023-05-07T02:25:57;5.45;;;4.88;;
48751;SDS011;34544;48.836;9.174;2023-05-07T02:28:25;7.30;;;5.07;;
48751;SDS011;34544;48.836;9.174;2023-05-07T02:30:56;7.55;;;5.38;;
48751;SDS011;34544;48.836;9.174;2023-05-07T02:33:24;8.52;;;5.30;;
48751;SDS011;34544;48.836;9.174;2023-05-07T02:35:56;6.50;;;5.47;;
48751;SDS011;34544;48.836;9.174;2023-05-07T02:38:22;7.88;;;4.97;;
48751;SDS011;34544;48.836;9.174;2023-05-07T02:40:48;14.07;;;6.30;;
48751;SDS011;34544;48.836;9.174;2023-05-07T02:43:15;8.60;;;5.63;;
48751;SDS011;34544;48.836;9.174;2023-05-07T02:45:43;7.03;;;5.72;;
48751;SDS011;34544;48.836;9.174;2023-05-07T02:48:10;10.13;;;5.50;;
48751;SDS011;34544;48.836;9.174;2023-05-07T02:50:36;6.07;;;5.13;;
48751;SDS011;34544;48.836;9.174;2023-05-07T02:53:02;6.75;;;4.82;;
48751;SDS011;34544;48.836;9.174;2023-05-07T02:55:28;6.55;;;5.13;;
48751;SDS011;34544;48.836;9.174;2023-05-07T02:57:54;7.85;;;4.70;;
48751;SDS011;34544;48.836;9.174;2023-05-07T03:00:20;9.10;;;5.45;;
48751;SDS011;34544;48.836;9.174;2023-05-07T03:02:59;7.10;;;4.35;;
48751;SDS011;34544;48.836;9.174;2023-05-07T03:05:25;7.10;;;5.65;;
48751;SDS011;34544;48.836;9.174;2023-05-07T03:07:50;5.53;;;4.95;;
48751;SDS011;34544;48.836;9.174;2023-05-07T03:10:16;8.55;;;5.82;;
48751;SDS011;34544;48.836;9.174;2023-05-07T03:12:42;5.75;;;4.72;;
48751;SDS011;34544;48.836;9.174;2023-05-07T03:15:11;6.38;;;4.93;;
48751;SDS011;34544;48.836;9.174;2023-05-07T03:17:38;7.25;;;5.30;;
48751;SDS011;34544;48.836;9.174;2023-05-07T03:20:04;7.15;;;5.55;;
48751;SDS011;34544;48.836;9.174;2023-05-07T03:22:31;6.28;;;5.30;;
48751;SDS011;34544;48.836;9.174;2023-05-07T03:24:57;6.70;;;5.30;;
48751;SDS011;34544;48.836;9.174;2023-05-07T03:27:22;9.07;;;5.72;;
48751;SDS011;34544;48.836;9.174;2023-05-07T03:29:51;7.43;;;5.28;;
48751;SDS011;34544;48.836;9.174;2023-05-07T03:32:17;7.07;;;4.95;;
48751;SDS011;34544;48.836;9.174;2023-05-07T03:34:43;8.07;;;5.40;;
48751;SDS011;34544;48.836;9.174;2023-05-07T03:37:11;6.05;;;5.15;;
48751;SDS011;34544;48.836;9.174;2023-05-07T03:39:36;6.78;;;4.97;;
48751;SDS011;34544;48.836;9.174;2023-05-07T03:42:02;8.38;;;5.38;;
48751;SDS011;34544;48.836;9.174;2023-05-07T03:44:30;9.32;;;5.20;;
48751;SDS011;34544;48.836;9.174;2023-05-07T03:46:58;7.03;;;5.38;;
48751;SDS011;34544;48.836;9.174;2023-05-07T03:49:24;8.95;;;6.43;;
48751;SDS011;34544;48.836;9.174;2023-05-07T03:51:50;7.25;;;5.47;;
48751;SDS011;34544;48.836;9.174;2023-05-07T03:54:17;7.72;;;5.55;;
48751;SDS011;34544;48.836;9.174;2023-05-07T03:56:45;7.68;;;5.30;;
48751;SDS011;34544;48.836;9.174;2023-05-07T03:59:11;8.00;;;5.80;;
48751;SDS011;34544;48.836;9.174;2023-05-07T04:01:39;8.02;;;5.93;;
48751;SDS011;34544;48.836;9.174;2023-05-07T04:04:05;7.57;;;5.20;;
48751;SDS011;34544;48.836;9.174;2023-05-07T04:06:33;14.40;;;5.40;;
48751;SDS011;34544;48.836;9.174;2023-05-07T04:08:59;7.28;;;5.28;;
48751;SDS011;34544;48.836;9.174;2023-05-07T04:11:25;8.48;;;6.03;;
48751;SDS011;34544;48.836;9.174;2023-05-07T04:13:51;7.22;;;5.63;;
48751;SDS011;34544;48.836;9.174;2023-05-07T04:16:20;10.23;;;5.47;;
48751;SDS011;34544;48.836;9.174;2023-05-07T04:18:46;8.43;;;5.65;;
48751;SDS011;34544;48.836;9.174;2023-05-07T04:21:15;7.53;;;6.63;;
48751;SDS011;34544;48.836;9.174;2023-05-07T04:23:46;6.03;;;5.43;;
48751;SDS011;34544;48.836;9.174;2023-05-07T04:26:13;6.55;;;5.82;;
48751;SDS011;34544;48.836;9.174;2023-05-07T04:28:42;6.90;;;5.00;;
48751;SDS011;34544;48.836;9.174;2023-05-07T04:31:08;9.85;;;5.53;;
48751;SDS011;34544;48.836;9.174;2023-05-07T04:33:35;5.50;;;4.93;;
48751;SDS011;34544;48.836;9.174;2023-05-07T04:36:02;6.82;;;5.03;;
48751;SDS011;34544;48.836;9.174;2023-05-07T04:38:31;6.45;;;5.03;;
48751;SDS011;34544;48.836;9.174;2023-05-07T04:41:02;9.80;;;4.90;;
48751;SDS011;34544;48.836;9.174;2023-05-07T04:43:31;8.25;;;5.15;;
48751;SDS011;34544;48.836;9.174;2023-05-07T04:45:58;8.18;;;5.47;;
48751;SDS011;34544;48.836;9.174;2023-05-07T04:48:25;6.60;;;5.07;;
48751;SDS011;34544;48.836;9.174;2023-05-07T04:50:52;6.53;;;5.40;;
48751;SDS011;34544;48.836;9.174;2023-05-07T04:53:19;6.32;;;5.43;;
48751;SDS011;34544;48.836;9.174;2023-05-07T04:55:46;5.88;;;5.05;;
48751;SDS011;34544;48.836;9.174;2023-05-07T04:58:13;5.25;;;4.35;;
48751;SDS011;34544;48.836;9.174;2023-05-07T05:00:40;7.97;;;5.03;;
48751;SDS011;34544;48.836;9.174;2023-05-07T05:03:07;6.38;;;5.10;;
48751;SDS011;34544;48.836;9.174;2023-05-07T05:05:33;7.90;;;6.20;;
48751;SDS011;34544;48.836;9.174;2023-05-07T05:08:01;11.98;;;4.75;;
48751;SDS011;34544;48.836;9.174;2023-05-07T05:10:27;6.47;;;5.18;;
48751;SDS011;34544;48.836;9.174;2023-05-07T05:12:52;8.52;;;5.97;;
48751;SDS011;34544;48.836;9.174;2023-05-07T05:15:19;6.13;;;4.65;;
48751;SDS011;34544;48.836;9.174;2023-05-07T05:17:45;5.53;;;4.45;;
48751;SDS011;34544;48.836;9.174;2023-05-07T05:20:11;6.93;;;4.65;;
48751;SDS011;34544;48.836;9.174;2023-05-07T05:22:38;7.10;;;5.15;;
48751;SDS011;34544;48.836;9.174;2023-05-07T05:25:05;7.05;;;5.13;;
48751;SDS011;34544;48.836;9.174;2023-05-07T05:27:31;6.80;;;5.70;;
48751;SDS011;34544;48.836;9.174;2023-05-07T05:29:57;6.22;;;5.18;;
48751;SDS011;34544;48.836;9.174;2023-05-07T05:32:23;7.65;;;5.15;;
48751;SDS011;34544;48.836;9.174;2023-05-07T05:34:52;6.53;;;4.45;;
48751;SDS011;34544;48.836;9.174;2023-05-07T05:37:18;7.28;;;5.07;;
48751;SDS011;34544;48.836;9.174;2023-05-07T05:39:44;4.78;;;4.28;;
48751;SDS011;34544;48.836;9.174;2023-05-07T05:42:10;7.60;;;4.75;;
48751;SDS011;34544;48.836;9.174;2023-05-07T05:44:36;7.05;;;4.38;;
48751;SDS011;34544;48.836;9.174;2023-05-07T05:47:02;10.20;;;4.30;;
48751;SDS011;34544;48.836;9.174;2023-05-07T05:49:29;5.03;;;4.50;;
48751;SDS011;34544;48.836;9.174;2023-05-07T05:51:55;6.40;;;4.20;;
48751;SDS011;34544;48.836;9.174;2023-05-07T05:54:22;5.07;;;4.18;;
48751;SDS011;34544;48.836;9.174;2023-05-07T05:56:48;6.47;;;4.97;;
48751;SDS011;34544;48.836;9.174;2023-05-07T05:59:15;6.38;;;4.32;;
48751;SDS011;34544;48.836;9.174;2023-05-07T06:01:41;5.60;;;4.28;;
48751;SDS011;34544;48.836;9.174;2023-05-07T06:04:07;4.82;;;4.20;;
48751;SDS011;34544;48.836;9.174;2023-05-07T06:06:34;5.90;;;4.38;;
48751;SDS011;34544;48.836;9.174;2023-05-07T06:09:01;5.13;;;4.35;;
48751;SDS011;34544;48.836;9.174;2023-05-07T06:11:34;4.97;;;3.90;;
48751;SDS011;34544;48.836;9.174;2023-05-07T06:14:00;5.03;;;3.97;;
48751;SDS011;34544;48.836;9.174;2023-05-07T06:16:27;4.40;;;3.67;;
48751;SDS011;34544;48.836;9.174;2023-05-07T06:18:53;4.93;;;3.78;;
48751;SDS011;34544;48.836;9.174;2023-05-07T06:21:19;6.70;;;3.95;;
48751;SDS011;34544;48.836;9.174;2023-05-07T06:23:44;5.22;;;4.22;;
48751;SDS011;34544;48.836;9.174;2023-05-07T06:26:10;4.43;;;3.97;;
48751;SDS011;34544;48.836;9.174;2023-05-07T06:28:40;5.07;;;4.32;;
48751;SDS011;34544;48.836;9.174;2023-05-07T06:31:10;6.55;;;3.67;;
48751;SDS011;34544;48.836;9.174;2023-05-07T06:33:44;4.45;;;3.35;;
48751;SDS011;34544;48.836;9.174;2023-05-07T06:36:10;4.05;;;3.30;;
48751;SDS011;34544;48.836;9.174;2023-05-07T06:38:38;4.85;;;3.88;;
48751;SDS011;34544;48.836;9.174;2023-05-07T06:41:05;6.40;;;3.70;;
48751;SDS011;34544;48.836;9.174;2023-05-07T06:43:31;4.75;;;4.28;;
48751;SDS011;34544;48.836;9.174;2023-05-07T06:46:13;4.40;;;4.00;;
48751;SDS011;34544;48.836;9.174;2023-05-07T06:48:38;4.88;;;3.85;;
48751;SDS011;34544;48.836;9.174;2023-05-07T06:51:04;7.82;;;3.88;;
48751;SDS011;34544;48.836;9.174;2023-05-07T06:53:31;5.88;;;3.58;;
48751;SDS011;34544;48.836;9.174;2023-05-07T06:55:58;5.32;;;3.38;;
48751;SDS011;34544;48.836;9.174;2023-05-07T06:58:24;5.50;;;3.30;;
48751;SDS011;34544;48.836;9.174;2023-05-07T07:00:51;3.95;;;3.25;;
48751;SDS011;34544;48.836;9.174;2023-05-07T07:03:16;3.78;;;3.47;;
48751;SDS011;34544;48.836;9.174;2023-05-07T07:05:43;3.33;;;2.95;;
48751;SDS011;34544;48.836;9.174;2023-05-07T07:08:09;3.00;;;2.70;;
48751;SDS011;34544;48.836;9.174;2023-05-07T07:10:35;6.13;;;2.75;;
48751;SDS011;34544;48.836;9.174;2023-05-07T07:13:02;2.75;;;2.30;;
48751;SDS011;34544;48.836;9.174;2023-05-07T07:15:28;4.35;;;3.13;;
48751;SDS011;34544;48.836;9.174;2023-05-07T07:17:55;2.75;;;2.28;;
48751;SDS011;34544;48.836;9.174;2023-05-07T07:20:22;3.90;;;3.10;;
48751;SDS011;34544;48.836;9.174;2023-05-07T07:22:48;3.28;;;2.35;;
48751;SDS011;34544;48.836;9.174;2023-05-07T07:25:15;2.42;;;2.22;;
48751;SDS011;34544;48.836;9.174;2023-05-07T07:27:41;4.40;;;3.80;;
48751;SDS011;34544;48.836;9.174;2023-05-07T07:30:11;3.92;;;2.63;;
48751;SDS011;34544;48.836;9.174;2023-05-07T07:32:39;3.67;;;3.00;;
48751;SDS011;34544;48.836;9.174;2023-05-07T07:35:05;4.90;;;3.22;;
48751;SDS011;34544;48.836;9.174;2023-05-07T07:37:32;6.13;;;2.97;;
48751;SDS011;34544;48.836;9.174;2023-05-07T07:39:58;3.78;;;2.80;;
48751;SDS011;34544;48.836;9.174;2023-05-07T07:42:24;4.72;;;2.67;;
48751;SDS011;34544;48.836;9.174;2023-05-07T07:44:50;3.90;;;2.47;;
48751;SDS011;34544;48.836;9.174;2023-05-07T07:47:19;3.15;;;2.55;;
48751;SDS011;34544;48.836;9.174;2023-05-07T07:49:47;3.53;;;2.28;;
48751;SDS011;34544;48.836;9.174;2023-05-07T07:52:13;2.95;;;2.65;;
48751;SDS011;34544;48.836;9.174;2023-05-07T07:54:42;3.40;;;2.67;;
48751;SDS011;34544;48.836;9.174;2023-05-07T07:57:08;4.90;;;2.88;;
48751;SDS011;34544;48.836;9.174;2023-05-07T07:59:35;4.55;;;2.70;;
48751;SDS011;34544;48.836;9.174;2023-05-07T08:02:00;4.53;;;3.13;;
48751;SDS011;34544;48.836;9.174;2023-05-07T08:04:28;5.20;;;2.47;;
48751;SDS011;34544;48.836;9.174;2023-05-07T08:06:57;4.40;;;2.70;;
48751;SDS011;34544;48.836;9.174;2023-05-07T08:09:23;3.58;;;2.95;;
48751;SDS011;34544;48.836;9.174;2023-05-07T08:11:50;6.60;;;2.60;;
48751;SDS011;34544;48.836;9.174;2023-05-07T08:14:16;5.47;;;2.65;;
48751;SDS011;34544;48.836;9.174;2023-05-07T08:16:44;3.58;;;2.60;;
48751;SDS011;34544;48.836;9.174;2023-05-07T08:19:10;6.28;;;2.83;;
48751;SDS011;34544;48.836;9.174;2023-05-07T08:21:38;3.58;;;2.90;;
48751;SDS011;34544;48.836;9.174;2023-05-07T08:24:05;3.25;;;2.88;;
48751;SDS011;34544;48.836;9.174;2023-05-07T08:26:31;3.08;;;2.55;;
48751;SDS011;34544;48.836;9.174;2023-05-07T08:28:57;5.75;;;3.05;;
48751;SDS011;34544;48.836;9.174;2023-05-07T08:31:23;3.33;;;2.47;;
48751;SDS011;34544;48.836;9.174;2023-05-07T08:33:49;5.82;;;2.40;;
48751;SDS011;34544;48.836;9.174;2023-05-07T08:36:15;3.05;;;2.08;;
48751;SDS011;34544;48.836;9.174;2023-05-07T08:38:40;3.58;;;3.25;;
48751;SDS011;34544;48.836;9.174;2023-05-07T08:41:09;4.32;;;3.92;;
48751;SDS011;34544;48.836;9.174;2023-05-07T08:43:36;4.78;;;2.85;;
48751;SDS011;34544;48.836;9.174;2023-05-07T08:46:05;3.17;;;2.17;;
48751;SDS011;34544;48.836;9.174;2023-05-07T08:48:36;5.28;;;2.83;;
48751;SDS011;34544;48.836;9.174;2023-05-07T08:51:13;2.53;;;2.33;;
48751;SDS011;34544;48.836;9.174;2023-05-07T08:53:41;6.22;;;3.20;;
48751;SDS011;34544;48.836;9.174;2023-05-07T08:56:10;3.15;;;2.67;;
48751;SDS011;34544;48.836;9.174;2023-05-07T08:58:36;4.80;;;2.40;;
48751;SDS011;34544;48.836;9.174;2023-05-07T09:01:04;3.65;;;2.03;;
48751;SDS011;34544;48.836;9.174;2023-05-07T09:03:33;4.75;;;2.83;;
48751;SDS011;34544;48.836;9.174;2023-05-07T09:05:59;3.92;;;2.80;;
48751;SDS011;34544;48.836;9.174;2023-05-07T09:08:26;3.58;;;2.30;;
48751;SDS011;34544;48.836;9.174;2023-05-07T09:10:54;3.60;;;2.65;;
48751;SDS011;34544;48.836;9.174;2023-05-07T09:13:22;2.67;;;2.47;;
48751;SDS011;34544;48.836;9.174;2023-05-07T09:15:47;6.70;;;2.50;;
48751;SDS011;34544;48.836;9.174;2023-05-07T09:18:13;4.03;;;2.40;;
48751;SDS011;34544;48.836;9.174;2023-05-07T09:20:40;3.05;;;2.30;;
48751;SDS011;34544;48.836;9.174;2023-05-07T09:23:07;2.95;;;2.20;;
48751;SDS011;34544;48.836;9.174;2023-05-07T09:25:34;2.80;;;2.03;;
48751;SDS011;34544;48.836;9.174;2023-05-07T09:28:06;4.78;;;2.00;;
48751;SDS011;34544;48.836;9.174;2023-05-07T09:30:33;4.57;;;2.05;;
48751;SDS011;34544;48.836;9.174;2023-05-07T09:33:02;2.42;;;1.65;;
48751;SDS011;34544;48.836;9.174;2023-05-07T09:35:29;3.22;;;1.88;;
48751;SDS011;34544;48.836;9.174;2023-05-07T09:38:00;1.97;;;1.73;;
48751;SDS011;34544;48.836;9.174;2023-05-07T09:40:27;3.63;;;2.05;;
48751;SDS011;34544;48.836;9.174;2023-05-07T09:43:08;3.15;;;1.83;;
48751;SDS011;34544;48.836;9.174;2023-05-07T09:45:36;2.83;;;1.70;;
48751;SDS011;34544;48.836;9.174;2023-05-07T09:48:01;2.47;;;1.75;;
48751;SDS011;34544;48.836;9.174;2023-05-07T09:50:39;1.42;;;1.33;;
48751;SDS011;34544;48.836;9.174;2023-05-07T09:53:10;3.60;;;1.73;;
48751;SDS011;34544;48.836;9.174;2023-05-07T09:55:38;2.00;;;1.80;;
48751;SDS011;34544;48.836;9.174;2023-05-07T09:58:05;1.58;;;1.40;;
48751;SDS011;34544;48.836;9.174;2023-05-07T10:00:32;3.40;;;1.38;;
48751;SDS011;34544;48.836;9.174;2023-05-07T10:03:07;1.80;;;1.50;;
48751;SDS011;34544;48.836;9.174;2023-05-07T10:05:44;3.28;;;1.50;;
48751;SDS011;34544;48.836;9.174;2023-05-07T10:08:13;2.50;;;1.40;;
48751;SDS011;34544;48.836;9.174;2023-05-07T10:10:42;1.92;;;1.58;;
48751;SDS011;34544;48.836;9.174;2023-05-07T10:13:12;2.10;;;1.42;;
48751;SDS011;34544;48.836;9.174;2023-05-07T10:15:43;1.52;;;1.38;;
48751;SDS011;34544;48.836;9.174;2023-05-07T10:18:10;4.05;;;1.40;;
48751;SDS011;34544;48.836;9.174;2023-05-07T10:20:37;1.77;;;1.60;;
48751;SDS011;34544;48.836;9.174;2023-05-07T10:23:06;4.10;;;1.40;;
48751;SDS011;34544;48.836;9.174;2023-05-07T10:25:41;2.40;;;1.10;;
48751;SDS011;34544;48.836;9.174;2023-05-07T10:28:15;3.53;;;1.50;;
48751;SDS011;34544;48.836;9.174;2023-05-07T10:30:52;2.38;;;1.33;;
48751;SDS011;34544;48.836;9.174;2023-05-07T10:33:28;3.17;;;1.45;;
48751;SDS011;34544;48.836;9.174;2023-05-07T10:35:57;1.83;;;1.58;;
48751;SDS011;34544;48.836;9.174;2023-05-07T10:38:25;1.77;;;1.38;;
48751;SDS011;34544;48.836;9.174;2023-05-07T10:40:54;2.92;;;1.40;;
48751;SDS011;34544;48.836;9.174;2023-05-07T10:43:20;1.60;;;1.50;;
48751;SDS011;34544;48.836;9.174;2023-05-07T10:51:33;3.03;;;1.70;;
48751;SDS011;34544;48.836;9.174;2023-05-07T10:56:41;4.15;;;1.65;;
48751;SDS011;34544;48.836;9.174;2023-05-07T11:01:54;4.75;;;1.50;;
48751;SDS011;34544;48.836;9.174;2023-05-07T11:04:31;2.28;;;1.60;;
48751;SDS011;34544;48.836;9.174;2023-05-07T11:07:26;3.38;;;1.70;;
48751;SDS011;34544;48.836;9.174;2023-05-07T11:09:59;3.75;;;3.45;;
48751;SDS011;34544;48.836;9.174;2023-05-07T11:12:50;4.00;;;2.10;;
48751;SDS011;34544;48.836;9.174;2023-05-07T11:15:34;3.00;;;1.75;;
48751;SDS011;34544;48.836;9.174;2023-05-07T11:18:04;2.22;;;1.42;;
48751;SDS011;34544;48.836;9.174;2023-05-07T11:20:45;2.35;;;1.40;;
48751;SDS011;34544;48.836;9.174;2023-05-07T11:26:07;1.60;;;1.50;;
48751;SDS011;34544;48.836;9.174;2023-05-07T11:28:38;3.92;;;1.70;;
48751;SDS011;34544;48.836;9.174;2023-05-07T11:31:05;4.50;;;1.45;;
48751;SDS011;34544;48.836;9.174;2023-05-07T11:33:31;3.33;;;1.15;;
48751;SDS011;34544;48.836;9.174;2023-05-07T11:36:00;2.17;;;1.30;;
48751;SDS011;34544;48.836;9.174;2023-05-07T11:38:36;3.70;;;1.65;;
48751;SDS011;34544;48.836;9.174;2023-05-07T11:41:02;2.80;;;1.60;;
48751;SDS011;34544;48.836;9.174;2023-05-07T11:43:30;4.70;;;1.92;;
48751;SDS011;34544;48.836;9.174;2023-05-07T11:48:35;3.63;;;1.42;;
48751;SDS011;34544;48.836;9.174;2023-05-07T11:51:02;1.58;;;1.20;;
48751;SDS011;34544;48.836;9.174;2023-05-07T11:53:39;1.83;;;1.60;;
48751;SDS011;34544;48.836;9.174;2023-05-07T11:56:10;2.13;;;1.45;;
48751;SDS011;34544;48.836;9.174;2023-05-07T11:58:36;2.55;;;1.48;;
48751;SDS011;34544;48.836;9.174;2023-05-07T12:01:03;2.25;;;1.42;;
48751;SDS011;34544;48.836;9.174;2023-05-07T12:03:29;3.47;;;1.70;;
48751;SDS011;34544;48.836;9.174;2023-05-07T12:05:54;4.85;;;1.83;;
48751;SDS011;34544;48.836;9.174;2023-05-07T12:08:21;3.20;;;1.73;;
48751;SDS011;34544;48.836;9.174;2023-05-07T12:10:47;5.18;;;1.85;;
48751;SDS011;34544;48.836;9.174;2023-05-07T12:13:15;2.05;;;1.58;;
48751;SDS011;34544;48.836;9.174;2023-05-07T12:15:45;6.05;;;1.42;;
48751;SDS011;34544;48.836;9.174;2023-05-07T12:18:10;2.22;;;1.35;;
48751;SDS011;34544;48.836;9.174;2023-05-07T12:20:37;3.35;;;1.88;;
48751;SDS011;34544;48.836;9.174;2023-05-07T12:23:02;8.35;;;1.67;;
48751;SDS011;34544;48.836;9.174;2023-05-07T12:25:34;1.80;;;1.48;;
48751;SDS011;34544;48.836;9.174;2023-05-07T12:28:01;1.48;;;1.17;;
48751;SDS011;34544;48.836;9.174;2023-05-07T12:30:28;2.63;;;1.30;;
48751;SDS011;34544;48.836;9.174;2023-05-07T12:32:54;3.05;;;2.22;;
48751;SDS011;34544;48.836;9.174;2023-05-07T12:35:29;1.88;;;1.70;;
48751;SDS011;34544;48.836;9.174;2023-05-07T12:37:56;2.17;;;1.73;;
48751;SDS011;34544;48.836;9.174;2023-05-07T12:40:24;2.33;;;1.83;;
48751;SDS011;34544;48.836;9.174;2023-05-07T12:43:00;3.45;;;1.90;;
48751;SDS011;34544;48.836;9.174;2023-05-07T12:45:26;3.40;;;2.10;;
48751;SDS011;34544;48.836;9.174;2023-05-07T12:47:51;5.20;;;1.80;;
48751;SDS011;34544;48.836;9.174;2023-05-07T12:50:17;5.55;;;1.67;;
48751;SDS011;34544;48.836;9.174;2023-05-07T12:52:49;2.63;;;1.75;;
48751;SDS011;34544;48.836;9.174;2023-05-07T12:55:15;3.22;;;2.15;;
48751;SDS011;34544;48.836;9.174;2023-05-07T12:57:43;4.47;;;2.30;;
48751;SDS011;34544;48.836;9.174;2023-05-07T13:00:12;6.82;;;2.78;;
48751;SDS011;34544;48.836;9.174;2023-05-07T13:02:39;4.43;;;2.20;;
48751;SDS011;34544;48.836;9.174;2023-05-07T13:05:07;6.45;;;2.55;;
48751;SDS011;34544;48.836;9.174;2023-05-07T13:07:33;5.53;;;2.13;;
48751;SDS011;34544;48.836;9.174;2023-05-07T13:09:59;4.38;;;2.15;;
48751;SDS011;34544;48.836;9.174;2023-05-07T13:12:25;7.18;;;1.90;;
48751;SDS011;34544;48.836;9.174;2023-05-07T13:14:50;4.25;;;2.58;;
48751;SDS011;34544;48.836;9.174;2023-05-07T13:17:16;5.68;;;2.15;;
48751;SDS011;34544;48.836;9.174;2023-05-07T13:19:43;9.15;;;2.38;;
48751;SDS011;34544;48.836;9.174;2023-05-07T13:22:09;2.72;;;1.38;;
48751;SDS011;34544;48.836;9.174;2023-05-07T13:24:35;3.63;;;3.10;;
48751;SDS011;34544;48.836;9.174;2023-05-07T13:27:01;2.58;;;1.20;;
48751;SDS011;34544;48.836;9.174;2023-05-07T13:29:27;3.60;;;1.73;;
48751;SDS011;34544;48.836;9.174;2023-05-07T13:31:56;6.28;;;1.55;;
48751;SDS011;34544;48.836;9.174;2023-05-07T13:34:22;3.72;;;1.48;;
48751;SDS011;34544;48.836;9.174;2023-05-07T13:36:47;5.55;;;1.45;;
48751;SDS011;34544;48.836;9.174;2023-05-07T13:39:13;6.50;;;2.22;;
48751;SDS011;34544;48.836;9.174;2023-05-07T13:41:39;1.45;;;1.35;;
48751;SDS011;34544;48.836;9.174;2023-05-07T13:44:04;2.88;;;1.60;;
48751;SDS011;34544;48.836;9.174;2023-05-07T13:46:30;2.63;;;1.73;;
48751;SDS011;34544;48.836;9.174;2023-05-07T13:48:56;4.22;;;2.30;;
48751;SDS011;34544;48.836;9.174;2023-05-07T13:51:22;3.53;;;1.70;;
48751;SDS011;34544;48.836;9.174;2023-05-07T13:53:48;3.58;;;1.20;;
48751;SDS011;34544;48.836;9.174;2023-05-07T13:56:14;1.30;;;1.05;;
48751;SDS011;34544;48.836;9.174;2023-05-07T13:58:40;0.90;;;0.70;;
48751;SDS011;34544;48.836;9.174;2023-05-07T14:01:06;1.05;;;0.57;;
48751;SDS011;34544;48.836;9.174;2023-05-07T14:03:31;1.13;;;0.60;;
48751;SDS011;34544;48.836;9.174;2023-05-07T14:05:59;2.00;;;0.50;;
48751;SDS011;34544;48.836;9.174;2023-05-07T14:08:26;0.75;;;0.60;;
48751;SDS011;34544;48.836;9.174;2023-05-07T14:10:52;0.57;;;0.57;;
48751;SDS011;34544;48.836;9.174;2023-05-07T14:13:18;1.13;;;0.88;;
48751;SDS011;34544;48.836;9.174;2023-05-07T14:15:44;3.17;;;1.35;;
48751;SDS011;34544;48.836;9.174;2023-05-07T14:18:11;2.65;;;1.58;;
48751;SDS011;34544;48.836;9.174;2023-05-07T14:20:37;3.72;;;1.40;;
48751;SDS011;34544;48.836;9.174;2023-05-07T14:23:03;4.32;;;1.58;;
48751;SDS011;34544;48.836;9.174;2023-05-07T14:25:29;5.50;;;1.27;;
48751;SDS011;34544;48.836;9.174;2023-05-07T14:27:55;2.08;;;1.38;;
48751;SDS011;34544;48.836;9.174;2023-05-07T14:30:20;2.90;;;1.30;;
48751;SDS011;34544;48.836;9.174;2023-05-07T14:32:49;6.18;;;3.13;;
48751;SDS011;34544;48.836;9.174;2023-05-07T14:35:15;3.22;;;1.48;;
48751;SDS011;34544;48.836;9.174;2023-05-07T14:37:41;2.50;;;1.70;;
48751;SDS011;34544;48.836;9.174;2023-05-07T14:40:08;3.20;;;1.40;;
48751;SDS011;34544;48.836;9.174;2023-05-07T14:42:34;2.17;;;1.63;;
48751;SDS011;34544;48.836;9.174;2023-05-07T14:45:00;5.78;;;1.98;;
48751;SDS011;34544;48.836;9.174;2023-05-07T14:47:25;3.03;;;1.48;;
48751;SDS011;34544;48.836;9.174;2023-05-07T14:49:51;3.88;;;1.77;;
48751;SDS011;34544;48.836;9.174;2023-05-07T14:52:18;3.38;;;1.83;;
48751;SDS011;34544;48.836;9.174;2023-05-07T14:54:44;2.17;;;1.67;;
48751;SDS011;34544;48.836;9.174;2023-05-07T14:57:10;2.25;;;1.58;;
48751;SDS011;34544;48.836;9.174;2023-05-07T14:59:38;3.05;;;1.80;;
48751;SDS011;34544;48.836;9.174;2023-05-07T15:02:04;3.15;;;1.60;;
48751;SDS011;34544;48.836;9.174;2023-05-07T15:04:32;3.42;;;1.55;;
48751;SDS011;34544;48.836;9.174;2023-05-07T15:07:01;2.00;;;1.55;;